sensor_id;sensor_type;location;lat;lon;timestamp;P1;durP1;ratioP1;P2;durP2;ratioP2
10687;SDS011;5392;42.688;23.298;2023-09-08T00:00:12;10.35;;;7.18;;
10687;SDS011;5392;42.688;23.298;2023-09-08T00:02:39;8.25;;;7.15;;
10687;SDS011;5392;42.688;23.298;2023-09-08T00:05:06;7.57;;;7.05;;
10687;SDS011;5392;42.688;23.298;2023-09-08T00:07:33;8.68;;;7.90;;
10687;SDS011;5392;42.688;23.298;2023-09-08T00:10:00;9.40;;;8.55;;
10687;SDS011;5392;42.688;23.298;2023-09-08T00:12:26;9.30;;;8.63;;
10687;SDS011;5392;42.688;23.298;2023-09-08T00:14:53;8.00;;;7.40;;
10687;SDS011;5392;42.688;23.298;2023-09-08T00:17:20;8.23;;;7.53;;
10687;SDS011;5392;42.688;23.298;2023-09-08T00:19:47;7.45;;;6.85;;
10687;SDS011;5392;42.688;23.298;2023-09-08T00:22:14;8.65;;;7.03;;
10687;SDS011;5392;42.688;23.298;2023-09-08T00:24:40;7.10;;;6.50;;
10687;SDS011;5392;42.688;23.298;2023-09-08T00:27:07;8.07;;;5.95;;
10687;SDS011;5392;42.688;23.298;2023-09-08T00:29:36;6.97;;;6.20;;
10687;SDS011;5392;42.688;23.298;2023-09-08T00:32:02;6.38;;;5.93;;
10687;SDS011;5392;42.688;23.298;2023-09-08T00:34:29;6.40;;;5.93;;
10687;SDS011;5392;42.688;23.298;2023-09-08T00:36:57;4.70;;;4.38;;
10687;SDS011;5392;42.688;23.298;2023-09-08T00:39:23;4.55;;;4.13;;
10687;SDS011;5392;42.688;23.298;2023-09-08T00:41:50;4.72;;;4.22;;
10687;SDS011;5392;42.688;23.298;2023-09-08T00:44:17;3.78;;;3.58;;
10687;SDS011;5392;42.688;23.298;2023-09-08T00:46:43;4.20;;;3.90;;
10687;SDS011;5392;42.688;23.298;2023-09-08T00:49:10;3.75;;;3.53;;
10687;SDS011;5392;42.688;23.298;2023-09-08T00:51:38;3.28;;;2.92;;
10687;SDS011;5392;42.688;23.298;2023-09-08T00:54:06;3.38;;;3.28;;
10687;SDS011;5392;42.688;23.298;2023-09-08T00:56:33;3.47;;;3.10;;
10687;SDS011;5392;42.688;23.298;2023-09-08T00:59:03;2.85;;;2.80;;
10687;SDS011;5392;42.688;23.298;2023-09-08T01:01:31;3.20;;;2.80;;
10687;SDS011;5392;42.688;23.298;2023-09-08T01:03:58;2.67;;;2.47;;
10687;SDS011;5392;42.688;23.298;2023-09-08T01:06:25;2.60;;;2.50;;
10687;SDS011;5392;42.688;23.298;2023-09-08T01:08:52;2.67;;;2.33;;
10687;SDS011;5392;42.688;23.298;2023-09-08T01:11:20;3.53;;;2.53;;
10687;SDS011;5392;42.688;23.298;2023-09-08T01:13:47;2.67;;;1.85;;
10687;SDS011;5392;42.688;23.298;2023-09-08T01:16:14;2.10;;;1.65;;
10687;SDS011;5392;42.688;23.298;2023-09-08T01:18:41;1.98;;;1.88;;
10687;SDS011;5392;42.688;23.298;2023-09-08T01:26:35;2.05;;;1.95;;
10687;SDS011;5392;42.688;23.298;2023-09-08T01:29:07;1.90;;;1.80;;
10687;SDS011;5392;42.688;23.298;2023-09-08T01:31:36;1.70;;;1.60;;
10687;SDS011;5392;42.688;23.298;2023-09-08T01:34:04;1.90;;;1.70;;
10687;SDS011;5392;42.688;23.298;2023-09-08T01:36:33;1.92;;;1.83;;
10687;SDS011;5392;42.688;23.298;2023-09-08T01:39:01;1.75;;;1.65;;
10687;SDS011;5392;42.688;23.298;2023-09-08T01:41:28;1.50;;;1.35;;
10687;SDS011;5392;42.688;23.298;2023-09-08T01:43:58;1.30;;;1.20;;
10687;SDS011;5392;42.688;23.298;2023-09-08T01:46:25;5.22;;;1.85;;
10687;SDS011;5392;42.688;23.298;2023-09-08T01:48:52;2.95;;;2.25;;
10687;SDS011;5392;42.688;23.298;2023-09-08T01:51:19;2.45;;;2.33;;
10687;SDS011;5392;42.688;23.298;2023-09-08T01:53:45;3.45;;;3.20;;
10687;SDS011;5392;42.688;23.298;2023-09-08T01:56:12;3.60;;;3.38;;
10687;SDS011;5392;42.688;23.298;2023-09-08T01:58:39;3.25;;;2.97;;
10687;SDS011;5392;42.688;23.298;2023-09-08T02:01:05;3.88;;;3.00;;
10687;SDS011;5392;42.688;23.298;2023-09-08T02:03:32;3.30;;;3.20;;
10687;SDS011;5392;42.688;23.298;2023-09-08T02:05:59;3.90;;;3.60;;
10687;SDS011;5392;42.688;23.298;2023-09-08T02:08:26;3.72;;;3.35;;
10687;SDS011;5392;42.688;23.298;2023-09-08T02:10:53;3.65;;;3.45;;
10687;SDS011;5392;42.688;23.298;2023-09-08T02:13:19;3.80;;;3.60;;
10687;SDS011;5392;42.688;23.298;2023-09-08T02:15:46;3.65;;;3.28;;
10687;SDS011;5392;42.688;23.298;2023-09-08T02:18:13;4.75;;;3.58;;
10687;SDS011;5392;42.688;23.298;2023-09-08T02:20:40;6.88;;;3.90;;
10687;SDS011;5392;42.688;23.298;2023-09-08T02:23:07;4.30;;;3.90;;
10687;SDS011;5392;42.688;23.298;2023-09-08T02:25:34;3.65;;;3.38;;
10687;SDS011;5392;42.688;23.298;2023-09-08T02:28:01;4.40;;;3.97;;
10687;SDS011;5392;42.688;23.298;2023-09-08T02:30:28;4.53;;;4.22;;
10687;SDS011;5392;42.688;23.298;2023-09-08T02:32:54;5.32;;;3.90;;
10687;SDS011;5392;42.688;23.298;2023-09-08T02:35:25;4.15;;;3.90;;
10687;SDS011;5392;42.688;23.298;2023-09-08T02:37:52;4.82;;;4.43;;
10687;SDS011;5392;42.688;23.298;2023-09-08T02:40:18;5.30;;;4.88;;
10687;SDS011;5392;42.688;23.298;2023-09-08T02:42:46;4.63;;;4.30;;
10687;SDS011;5392;42.688;23.298;2023-09-08T02:45:13;4.82;;;4.53;;
10687;SDS011;5392;42.688;23.298;2023-09-08T02:47:40;5.20;;;4.50;;
10687;SDS011;5392;42.688;23.298;2023-09-08T02:50:07;5.47;;;5.07;;
10687;SDS011;5392;42.688;23.298;2023-09-08T02:52:35;7.15;;;4.45;;
10687;SDS011;5392;42.688;23.298;2023-09-08T02:55:01;5.20;;;4.82;;
10687;SDS011;5392;42.688;23.298;2023-09-08T02:57:28;6.05;;;5.47;;
10687;SDS011;5392;42.688;23.298;2023-09-08T02:59:55;5.00;;;4.60;;
10687;SDS011;5392;42.688;23.298;2023-09-08T03:02:25;5.70;;;5.30;;
10687;SDS011;5392;42.688;23.298;2023-09-08T03:04:53;5.63;;;5.13;;
10687;SDS011;5392;42.688;23.298;2023-09-08T03:07:19;5.80;;;5.30;;
10687;SDS011;5392;42.688;23.298;2023-09-08T03:09:46;5.22;;;4.93;;
10687;SDS011;5392;42.688;23.298;2023-09-08T03:12:13;7.50;;;5.68;;
10687;SDS011;5392;42.688;23.298;2023-09-08T03:14:40;5.78;;;5.38;;
10687;SDS011;5392;42.688;23.298;2023-09-08T03:17:07;6.10;;;5.60;;
10687;SDS011;5392;42.688;23.298;2023-09-08T03:19:33;6.45;;;5.82;;
10687;SDS011;5392;42.688;23.298;2023-09-08T03:22:00;7.03;;;5.65;;
10687;SDS011;5392;42.688;23.298;2023-09-08T03:24:27;7.32;;;6.28;;
10687;SDS011;5392;42.688;23.298;2023-09-08T03:26:54;5.65;;;5.35;;
10687;SDS011;5392;42.688;23.298;2023-09-08T03:29:21;6.20;;;5.60;;
10687;SDS011;5392;42.688;23.298;2023-09-08T03:31:48;8.45;;;6.55;;
10687;SDS011;5392;42.688;23.298;2023-09-08T03:34:15;5.93;;;5.53;;
10687;SDS011;5392;42.688;23.298;2023-09-08T03:36:41;6.93;;;6.32;;
10687;SDS011;5392;42.688;23.298;2023-09-08T03:39:08;6.80;;;6.18;;
10687;SDS011;5392;42.688;23.298;2023-09-08T03:41:35;7.07;;;6.35;;
10687;SDS011;5392;42.688;23.298;2023-09-08T03:44:02;7.85;;;7.10;;
10687;SDS011;5392;42.688;23.298;2023-09-08T03:46:29;9.40;;;6.63;;
10687;SDS011;5392;42.688;23.298;2023-09-08T03:48:56;7.53;;;6.82;;
10687;SDS011;5392;42.688;23.298;2023-09-08T03:51:27;7.05;;;6.35;;
10687;SDS011;5392;42.688;23.298;2023-09-08T03:53:54;12.50;;;7.45;;
10687;SDS011;5392;42.688;23.298;2023-09-08T03:56:21;7.28;;;6.68;;
10687;SDS011;5392;42.688;23.298;2023-09-08T03:58:48;8.20;;;6.95;;
10687;SDS011;5392;42.688;23.298;2023-09-08T04:01:15;9.02;;;7.40;;
10687;SDS011;5392;42.688;23.298;2023-09-08T04:03:42;7.18;;;6.68;;
10687;SDS011;5392;42.688;23.298;2023-09-08T04:06:10;7.47;;;6.80;;
10687;SDS011;5392;42.688;23.298;2023-09-08T04:08:37;7.03;;;6.47;;
10687;SDS011;5392;42.688;23.298;2023-09-08T04:11:04;7.35;;;6.40;;
10687;SDS011;5392;42.688;23.298;2023-09-08T04:13:31;8.52;;;6.75;;
10687;SDS011;5392;42.688;23.298;2023-09-08T04:15:58;10.93;;;7.03;;
10687;SDS011;5392;42.688;23.298;2023-09-08T04:18:25;7.70;;;7.00;;
10687;SDS011;5392;42.688;23.298;2023-09-08T04:20:52;10.60;;;7.78;;
10687;SDS011;5392;42.688;23.298;2023-09-08T04:23:19;8.40;;;7.28;;
10687;SDS011;5392;42.688;23.298;2023-09-08T04:25:45;11.20;;;7.18;;
10687;SDS011;5392;42.688;23.298;2023-09-08T04:28:12;8.05;;;7.38;;
10687;SDS011;5392;42.688;23.298;2023-09-08T04:30:39;9.68;;;7.45;;
10687;SDS011;5392;42.688;23.298;2023-09-08T04:33:05;8.65;;;6.63;;
10687;SDS011;5392;42.688;23.298;2023-09-08T04:35:32;9.27;;;7.25;;
10687;SDS011;5392;42.688;23.298;2023-09-08T04:37:59;14.35;;;8.43;;
10687;SDS011;5392;42.688;23.298;2023-09-08T04:40:29;9.50;;;8.10;;
10687;SDS011;5392;42.688;23.298;2023-09-08T04:42:56;9.18;;;6.65;;
10687;SDS011;5392;42.688;23.298;2023-09-08T04:45:23;7.18;;;6.47;;
10687;SDS011;5392;42.688;23.298;2023-09-08T04:47:50;4.97;;;4.68;;
10687;SDS011;5392;42.688;23.298;2023-09-08T04:50:16;5.20;;;4.78;;
10687;SDS011;5392;42.688;23.298;2023-09-08T04:52:44;6.13;;;4.55;;
10687;SDS011;5392;42.688;23.298;2023-09-08T04:55:11;6.35;;;4.20;;
10687;SDS011;5392;42.688;23.298;2023-09-08T04:57:38;6.60;;;4.80;;
10687;SDS011;5392;42.688;23.298;2023-09-08T05:00:05;4.75;;;4.40;;
10687;SDS011;5392;42.688;23.298;2023-09-08T05:02:32;8.10;;;5.03;;
10687;SDS011;5392;42.688;23.298;2023-09-08T05:04:59;5.43;;;4.75;;
10687;SDS011;5392;42.688;23.298;2023-09-08T05:07:26;7.50;;;4.93;;
10687;SDS011;5392;42.688;23.298;2023-09-08T05:09:53;7.70;;;4.47;;
10687;SDS011;5392;42.688;23.298;2023-09-08T05:12:23;4.50;;;4.07;;
10687;SDS011;5392;42.688;23.298;2023-09-08T05:14:50;6.75;;;5.07;;
10687;SDS011;5392;42.688;23.298;2023-09-08T05:17:23;8.00;;;4.70;;
10687;SDS011;5392;42.688;23.298;2023-09-08T05:19:50;4.63;;;4.32;;
10687;SDS011;5392;42.688;23.298;2023-09-08T05:22:17;6.55;;;4.25;;
10687;SDS011;5392;42.688;23.298;2023-09-08T05:24:43;4.30;;;3.88;;
10687;SDS011;5392;42.688;23.298;2023-09-08T05:27:10;5.65;;;3.72;;
10687;SDS011;5392;42.688;23.298;2023-09-08T05:29:37;3.08;;;2.92;;
10687;SDS011;5392;42.688;23.298;2023-09-08T05:32:04;4.95;;;3.90;;
10687;SDS011;5392;42.688;23.298;2023-09-08T05:34:30;5.00;;;3.75;;
10687;SDS011;5392;42.688;23.298;2023-09-08T05:36:57;4.85;;;3.22;;
10687;SDS011;5392;42.688;23.298;2023-09-08T05:39:24;3.30;;;2.70;;
10687;SDS011;5392;42.688;23.298;2023-09-08T05:41:51;3.33;;;3.13;;
10687;SDS011;5392;42.688;23.298;2023-09-08T05:44:17;3.65;;;3.08;;
10687;SDS011;5392;42.688;23.298;2023-09-08T05:46:44;3.47;;;2.70;;
10687;SDS011;5392;42.688;23.298;2023-09-08T05:49:11;3.78;;;3.25;;
10687;SDS011;5392;42.688;23.298;2023-09-08T05:51:39;2.85;;;2.58;;
10687;SDS011;5392;42.688;23.298;2023-09-08T05:54:06;3.13;;;2.70;;
10687;SDS011;5392;42.688;23.298;2023-09-08T05:56:33;3.67;;;2.42;;
10687;SDS011;5392;42.688;23.298;2023-09-08T05:59:00;3.42;;;2.72;;
10687;SDS011;5392;42.688;23.298;2023-09-08T06:01:28;3.45;;;2.40;;
10687;SDS011;5392;42.688;23.298;2023-09-08T06:03:55;2.72;;;2.28;;
10687;SDS011;5392;42.688;23.298;2023-09-08T06:06:22;2.50;;;2.30;;
10687;SDS011;5392;42.688;23.298;2023-09-08T06:08:49;4.70;;;2.72;;
10687;SDS011;5392;42.688;23.298;2023-09-08T06:11:16;8.80;;;1.90;;
10687;SDS011;5392;42.688;23.298;2023-09-08T06:13:43;4.13;;;1.73;;
10687;SDS011;5392;42.688;23.298;2023-09-08T06:16:10;3.72;;;1.33;;
10687;SDS011;5392;42.688;23.298;2023-09-08T06:18:37;1.83;;;1.48;;
10687;SDS011;5392;42.688;23.298;2023-09-08T06:21:06;2.20;;;1.52;;
10687;SDS011;5392;42.688;23.298;2023-09-08T06:23:34;1.60;;;1.40;;
10687;SDS011;5392;42.688;23.298;2023-09-08T06:26:03;3.72;;;1.60;;
10687;SDS011;5392;42.688;23.298;2023-09-08T06:28:30;3.58;;;1.77;;
10687;SDS011;5392;42.688;23.298;2023-09-08T06:30:56;3.40;;;1.52;;
10687;SDS011;5392;42.688;23.298;2023-09-08T06:33:23;5.53;;;1.58;;
10687;SDS011;5392;42.688;23.298;2023-09-08T06:35:50;2.42;;;0.90;;
10687;SDS011;5392;42.688;23.298;2023-09-08T06:38:17;1.58;;;0.90;;
10687;SDS011;5392;42.688;23.298;2023-09-08T06:40:44;1.77;;;0.80;;
10687;SDS011;5392;42.688;23.298;2023-09-08T06:43:12;1.50;;;0.95;;
10687;SDS011;5392;42.688;23.298;2023-09-08T06:45:39;4.55;;;1.00;;
10687;SDS011;5392;42.688;23.298;2023-09-08T06:48:09;1.50;;;0.88;;
10687;SDS011;5392;42.688;23.298;2023-09-08T06:50:36;1.42;;;0.90;;
10687;SDS011;5392;42.688;23.298;2023-09-08T06:53:02;3.20;;;1.08;;
10687;SDS011;5392;42.688;23.298;2023-09-08T06:55:29;1.48;;;0.80;;
10687;SDS011;5392;42.688;23.298;2023-09-08T06:57:56;2.70;;;0.80;;
10687;SDS011;5392;42.688;23.298;2023-09-08T07:00:23;0.80;;;0.80;;
10687;SDS011;5392;42.688;23.298;2023-09-08T07:02:50;1.60;;;0.80;;
10687;SDS011;5392;42.688;23.298;2023-09-08T07:05:17;2.40;;;0.88;;
10687;SDS011;5392;42.688;23.298;2023-09-08T07:07:45;0.95;;;0.80;;
10687;SDS011;5392;42.688;23.298;2023-09-08T07:10:12;1.30;;;0.70;;
10687;SDS011;5392;42.688;23.298;2023-09-08T07:12:39;1.08;;;0.70;;
10687;SDS011;5392;42.688;23.298;2023-09-08T07:15:06;0.63;;;0.60;;
10687;SDS011;5392;42.688;23.298;2023-09-08T07:17:35;1.55;;;0.90;;
10687;SDS011;5392;42.688;23.298;2023-09-08T07:20:01;1.45;;;0.90;;
10687;SDS011;5392;42.688;23.298;2023-09-08T07:22:28;2.80;;;0.80;;
10687;SDS011;5392;42.688;23.298;2023-09-08T07:24:55;1.33;;;0.60;;
10687;SDS011;5392;42.688;23.298;2023-09-08T07:27:22;1.48;;;0.70;;
10687;SDS011;5392;42.688;23.298;2023-09-08T07:29:49;1.23;;;0.70;;
10687;SDS011;5392;42.688;23.298;2023-09-08T07:32:16;0.75;;;0.73;;
10687;SDS011;5392;42.688;23.298;2023-09-08T07:34:43;3.05;;;0.63;;
10687;SDS011;5392;42.688;23.298;2023-09-08T07:37:10;1.25;;;0.60;;
10687;SDS011;5392;42.688;23.298;2023-09-08T07:39:37;1.60;;;0.77;;
10687;SDS011;5392;42.688;23.298;2023-09-08T07:42:03;0.88;;;0.60;;
10687;SDS011;5392;42.688;23.298;2023-09-08T07:44:30;1.95;;;0.70;;
10687;SDS011;5392;42.688;23.298;2023-09-08T07:46:57;1.63;;;0.80;;
10687;SDS011;5392;42.688;23.298;2023-09-08T07:49:24;1.45;;;0.80;;
10687;SDS011;5392;42.688;23.298;2023-09-08T07:51:51;1.52;;;0.50;;
10687;SDS011;5392;42.688;23.298;2023-09-08T07:54:17;1.13;;;0.90;;
10687;SDS011;5392;42.688;23.298;2023-09-08T07:56:46;0.95;;;0.70;;
10687;SDS011;5392;42.688;23.298;2023-09-08T07:59:13;0.60;;;0.60;;
10687;SDS011;5392;42.688;23.298;2023-09-08T08:01:40;0.50;;;0.50;;
10687;SDS011;5392;42.688;23.298;2023-09-08T08:04:07;1.25;;;0.70;;
10687;SDS011;5392;42.688;23.298;2023-09-08T08:06:34;2.17;;;0.60;;
10687;SDS011;5392;42.688;23.298;2023-09-08T08:09:01;1.95;;;0.70;;
10687;SDS011;5392;42.688;23.298;2023-09-08T08:11:28;6.07;;;0.90;;
10687;SDS011;5392;42.688;23.298;2023-09-08T08:14:14;1.15;;;0.70;;
10687;SDS011;5392;42.688;23.298;2023-09-08T08:16:40;1.92;;;0.80;;
10687;SDS011;5392;42.688;23.298;2023-09-08T08:19:07;1.35;;;0.80;;
10687;SDS011;5392;42.688;23.298;2023-09-08T08:21:34;1.42;;;1.30;;
10687;SDS011;5392;42.688;23.298;2023-09-08T08:24:01;0.70;;;0.65;;
10687;SDS011;5392;42.688;23.298;2023-09-08T08:26:27;5.88;;;0.90;;
10687;SDS011;5392;42.688;23.298;2023-09-08T08:28:58;1.75;;;0.88;;
10687;SDS011;5392;42.688;23.298;2023-09-08T08:31:25;3.75;;;1.15;;
10687;SDS011;5392;42.688;23.298;2023-09-08T08:33:52;0.80;;;0.80;;
10687;SDS011;5392;42.688;23.298;2023-09-08T08:36:19;1.95;;;1.00;;
10687;SDS011;5392;42.688;23.298;2023-09-08T08:38:46;0.80;;;0.80;;
10687;SDS011;5392;42.688;23.298;2023-09-08T08:41:12;2.50;;;0.65;;
10687;SDS011;5392;42.688;23.298;2023-09-08T08:43:39;2.83;;;0.80;;
10687;SDS011;5392;42.688;23.298;2023-09-08T08:46:07;1.02;;;0.70;;
10687;SDS011;5392;42.688;23.298;2023-09-08T08:48:35;0.88;;;0.73;;
10687;SDS011;5392;42.688;23.298;2023-09-08T08:51:03;1.55;;;0.80;;
10687;SDS011;5392;42.688;23.298;2023-09-08T08:53:31;1.75;;;0.73;;
10687;SDS011;5392;42.688;23.298;2023-09-08T08:56:00;0.70;;;0.70;;
10687;SDS011;5392;42.688;23.298;2023-09-08T08:58:27;1.30;;;0.70;;
10687;SDS011;5392;42.688;23.298;2023-09-08T09:00:54;3.72;;;0.80;;
10687;SDS011;5392;42.688;23.298;2023-09-08T09:03:28;0.65;;;0.65;;
10687;SDS011;5392;42.688;23.298;2023-09-08T09:05:56;0.88;;;0.70;;
10687;SDS011;5392;42.688;23.298;2023-09-08T09:08:23;0.60;;;0.60;;
10687;SDS011;5392;42.688;23.298;2023-09-08T09:10:51;2.25;;;0.90;;
10687;SDS011;5392;42.688;23.298;2023-09-08T09:13:18;2.13;;;0.90;;
10687;SDS011;5392;42.688;23.298;2023-09-08T09:15:45;2.92;;;0.75;;
10687;SDS011;5392;42.688;23.298;2023-09-08T09:18:13;0.63;;;0.60;;
10687;SDS011;5392;42.688;23.298;2023-09-08T09:20:40;2.65;;;0.90;;
10687;SDS011;5392;42.688;23.298;2023-09-08T09:23:07;2.55;;;0.77;;
10687;SDS011;5392;42.688;23.298;2023-09-08T09:25:34;0.75;;;0.75;;
10687;SDS011;5392;42.688;23.298;2023-09-08T09:28:03;1.70;;;0.75;;
10687;SDS011;5392;42.688;23.298;2023-09-08T09:30:45;1.63;;;0.70;;
10687;SDS011;5392;42.688;23.298;2023-09-08T09:33:14;1.88;;;0.70;;
10687;SDS011;5392;42.688;23.298;2023-09-08T09:38:16;1.58;;;1.02;;
10687;SDS011;5392;42.688;23.298;2023-09-08T09:40:46;3.20;;;0.85;;
10687;SDS011;5392;42.688;23.298;2023-09-08T09:43:14;2.47;;;0.68;;
10687;SDS011;5392;42.688;23.298;2023-09-08T09:45:43;0.70;;;0.70;;
10687;SDS011;5392;42.688;23.298;2023-09-08T09:48:10;3.95;;;0.80;;
10687;SDS011;5392;42.688;23.298;2023-09-08T09:50:38;1.27;;;1.17;;
10687;SDS011;5392;42.688;23.298;2023-09-08T09:53:12;1.00;;;0.90;;
10687;SDS011;5392;42.688;23.298;2023-09-08T09:55:42;1.02;;;1.00;;
10687;SDS011;5392;42.688;23.298;2023-09-08T09:58:10;1.45;;;0.73;;
10687;SDS011;5392;42.688;23.298;2023-09-08T10:00:38;0.90;;;0.70;;
10687;SDS011;5392;42.688;23.298;2023-09-08T10:03:14;3.33;;;1.13;;
10687;SDS011;5392;42.688;23.298;2023-09-08T10:05:41;0.80;;;0.80;;
10687;SDS011;5392;42.688;23.298;2023-09-08T10:08:08;2.70;;;0.73;;
10687;SDS011;5392;42.688;23.298;2023-09-08T10:10:35;1.20;;;0.90;;
10687;SDS011;5392;42.688;23.298;2023-09-08T10:13:05;2.25;;;1.10;;
10687;SDS011;5392;42.688;23.298;2023-09-08T10:15:33;2.15;;;0.95;;
10687;SDS011;5392;42.688;23.298;2023-09-08T10:18:03;1.02;;;1.02;;
10687;SDS011;5392;42.688;23.298;2023-09-08T10:20:31;0.70;;;0.70;;
10687;SDS011;5392;42.688;23.298;2023-09-08T10:25:28;2.60;;;0.80;;
10687;SDS011;5392;42.688;23.298;2023-09-08T10:27:59;3.25;;;1.20;;
10687;SDS011;5392;42.688;23.298;2023-09-08T10:30:26;0.70;;;0.70;;
10687;SDS011;5392;42.688;23.298;2023-09-08T10:32:53;2.63;;;0.80;;
10687;SDS011;5392;42.688;23.298;2023-09-08T10:35:20;1.10;;;0.93;;
10687;SDS011;5392;42.688;23.298;2023-09-08T10:37:47;1.33;;;0.80;;
10687;SDS011;5392;42.688;23.298;2023-09-08T10:40:23;1.70;;;0.70;;
10687;SDS011;5392;42.688;23.298;2023-09-08T10:43:06;2.05;;;1.08;;
10687;SDS011;5392;42.688;23.298;2023-09-08T10:45:34;1.15;;;0.70;;
10687;SDS011;5392;42.688;23.298;2023-09-08T10:48:01;2.22;;;0.60;;
10687;SDS011;5392;42.688;23.298;2023-09-08T10:50:31;2.95;;;0.70;;
10687;SDS011;5392;42.688;23.298;2023-09-08T10:55:41;1.25;;;0.80;;
10687;SDS011;5392;42.688;23.298;2023-09-08T10:58:10;2.38;;;0.80;;
10687;SDS011;5392;42.688;23.298;2023-09-08T11:00:43;2.45;;;0.70;;
10687;SDS011;5392;42.688;23.298;2023-09-08T11:03:11;3.03;;;0.80;;
10687;SDS011;5392;42.688;23.298;2023-09-08T11:05:39;0.70;;;0.70;;
10687;SDS011;5392;42.688;23.298;2023-09-08T11:08:07;1.67;;;0.80;;
10687;SDS011;5392;42.688;23.298;2023-09-08T11:10:34;1.35;;;0.70;;
10687;SDS011;5392;42.688;23.298;2023-09-08T11:13:01;2.33;;;0.80;;
10687;SDS011;5392;42.688;23.298;2023-09-08T11:15:29;2.05;;;0.98;;
10687;SDS011;5392;42.688;23.298;2023-09-08T11:17:56;1.15;;;0.75;;
10687;SDS011;5392;42.688;23.298;2023-09-08T11:20:26;1.88;;;0.90;;
10687;SDS011;5392;42.688;23.298;2023-09-08T11:22:54;2.15;;;0.90;;
10687;SDS011;5392;42.688;23.298;2023-09-08T11:25:21;2.42;;;1.00;;
10687;SDS011;5392;42.688;23.298;2023-09-08T11:27:48;1.27;;;0.73;;
10687;SDS011;5392;42.688;23.298;2023-09-08T11:30:16;0.80;;;0.80;;
10687;SDS011;5392;42.688;23.298;2023-09-08T11:32:44;1.25;;;0.88;;
10687;SDS011;5392;42.688;23.298;2023-09-08T11:35:11;1.45;;;0.95;;
10687;SDS011;5392;42.688;23.298;2023-09-08T11:37:40;1.55;;;0.80;;
10687;SDS011;5392;42.688;23.298;2023-09-08T11:40:10;2.55;;;1.00;;
10687;SDS011;5392;42.688;23.298;2023-09-08T11:42:40;2.47;;;0.70;;
10687;SDS011;5392;42.688;23.298;2023-09-08T11:45:12;2.75;;;0.95;;
10687;SDS011;5392;42.688;23.298;2023-09-08T11:47:47;0.60;;;0.60;;
10687;SDS011;5392;42.688;23.298;2023-09-08T11:50:16;2.05;;;0.98;;
10687;SDS011;5392;42.688;23.298;2023-09-08T11:52:45;2.05;;;0.90;;
10687;SDS011;5392;42.688;23.298;2023-09-08T11:55:13;0.93;;;0.73;;
10687;SDS011;5392;42.688;23.298;2023-09-08T11:57:42;1.08;;;0.80;;
10687;SDS011;5392;42.688;23.298;2023-09-08T12:00:12;0.88;;;0.85;;
10687;SDS011;5392;42.688;23.298;2023-09-08T12:02:44;2.35;;;0.95;;
10687;SDS011;5392;42.688;23.298;2023-09-08T12:07:55;1.42;;;0.68;;
10687;SDS011;5392;42.688;23.298;2023-09-08T12:10:23;3.22;;;1.10;;
10687;SDS011;5392;42.688;23.298;2023-09-08T12:12:51;0.88;;;0.80;;
10687;SDS011;5392;42.688;23.298;2023-09-08T12:18:00;0.95;;;0.95;;
10687;SDS011;5392;42.688;23.298;2023-09-08T12:20:28;1.95;;;0.70;;
10687;SDS011;5392;42.688;23.298;2023-09-08T12:22:57;1.88;;;0.80;;
10687;SDS011;5392;42.688;23.298;2023-09-08T12:25:27;1.25;;;0.80;;
10687;SDS011;5392;42.688;23.298;2023-09-08T12:28:04;0.98;;;0.98;;
10687;SDS011;5392;42.688;23.298;2023-09-08T12:30:31;0.90;;;0.80;;
10687;SDS011;5392;42.688;23.298;2023-09-08T12:33:00;1.33;;;0.95;;
10687;SDS011;5392;42.688;23.298;2023-09-08T12:35:28;2.63;;;0.90;;
10687;SDS011;5392;42.688;23.298;2023-09-08T12:38:01;1.15;;;0.77;;
10687;SDS011;5392;42.688;23.298;2023-09-08T12:40:29;1.33;;;1.08;;
10687;SDS011;5392;42.688;23.298;2023-09-08T12:42:56;1.52;;;0.70;;
10687;SDS011;5392;42.688;23.298;2023-09-08T12:45:45;0.90;;;0.90;;
10687;SDS011;5392;42.688;23.298;2023-09-08T12:48:13;2.65;;;0.90;;
10687;SDS011;5392;42.688;23.298;2023-09-08T12:50:39;2.38;;;0.88;;
10687;SDS011;5392;42.688;23.298;2023-09-08T12:53:06;4.47;;;1.00;;
10687;SDS011;5392;42.688;23.298;2023-09-08T12:55:33;1.85;;;1.02;;
10687;SDS011;5392;42.688;23.298;2023-09-08T12:58:00;1.02;;;0.70;;
10687;SDS011;5392;42.688;23.298;2023-09-08T13:00:26;2.17;;;0.82;;
10687;SDS011;5392;42.688;23.298;2023-09-08T13:02:54;0.77;;;0.77;;
10687;SDS011;5392;42.688;23.298;2023-09-08T13:05:21;2.80;;;0.90;;
10687;SDS011;5392;42.688;23.298;2023-09-08T13:07:48;0.88;;;0.88;;
10687;SDS011;5392;42.688;23.298;2023-09-08T13:10:14;0.93;;;0.70;;
10687;SDS011;5392;42.688;23.298;2023-09-08T13:12:41;1.38;;;0.82;;
10687;SDS011;5392;42.688;23.298;2023-09-08T13:15:08;2.25;;;0.90;;
10687;SDS011;5392;42.688;23.298;2023-09-08T13:17:35;1.77;;;0.90;;
10687;SDS011;5392;42.688;23.298;2023-09-08T13:20:02;1.35;;;0.70;;
10687;SDS011;5392;42.688;23.298;2023-09-08T13:22:30;0.88;;;0.88;;
10687;SDS011;5392;42.688;23.298;2023-09-08T13:24:57;1.15;;;0.80;;
10687;SDS011;5392;42.688;23.298;2023-09-08T13:27:23;2.15;;;0.85;;
10687;SDS011;5392;42.688;23.298;2023-09-08T13:29:50;2.35;;;0.95;;
10687;SDS011;5392;42.688;23.298;2023-09-08T13:32:19;1.05;;;0.80;;
10687;SDS011;5392;42.688;23.298;2023-09-08T13:34:47;4.15;;;0.90;;
10687;SDS011;5392;42.688;23.298;2023-09-08T13:37:14;0.77;;;0.73;;
10687;SDS011;5392;42.688;23.298;2023-09-08T13:39:41;1.65;;;0.93;;
10687;SDS011;5392;42.688;23.298;2023-09-08T13:42:08;1.30;;;1.00;;
10687;SDS011;5392;42.688;23.298;2023-09-08T13:44:35;1.95;;;0.80;;
10687;SDS011;5392;42.688;23.298;2023-09-08T13:47:02;2.28;;;0.98;;
10687;SDS011;5392;42.688;23.298;2023-09-08T13:49:29;1.40;;;0.80;;
10687;SDS011;5392;42.688;23.298;2023-09-08T13:51:58;2.33;;;0.80;;
10687;SDS011;5392;42.688;23.298;2023-09-08T13:54:27;0.70;;;0.70;;
10687;SDS011;5392;42.688;23.298;2023-09-08T13:56:59;1.15;;;0.93;;
10687;SDS011;5392;42.688;23.298;2023-09-08T13:59:33;1.50;;;0.90;;
10687;SDS011;5392;42.688;23.298;2023-09-08T14:02:02;1.60;;;1.00;;
10687;SDS011;5392;42.688;23.298;2023-09-08T14:04:32;0.90;;;0.90;;
10687;SDS011;5392;42.688;23.298;2023-09-08T14:07:05;1.95;;;0.88;;
10687;SDS011;5392;42.688;23.298;2023-09-08T14:09:39;2.70;;;0.70;;
10687;SDS011;5392;42.688;23.298;2023-09-08T14:12:19;0.98;;;0.95;;
10687;SDS011;5392;42.688;23.298;2023-09-08T14:14:51;5.68;;;1.00;;
10687;SDS011;5392;42.688;23.298;2023-09-08T14:17:17;0.77;;;0.75;;
10687;SDS011;5392;42.688;23.298;2023-09-08T14:19:44;2.15;;;0.98;;
10687;SDS011;5392;42.688;23.298;2023-09-08T14:22:11;2.95;;;0.93;;
10687;SDS011;5392;42.688;23.298;2023-09-08T14:24:38;1.80;;;1.15;;
10687;SDS011;5392;42.688;23.298;2023-09-08T14:27:05;1.55;;;0.70;;
10687;SDS011;5392;42.688;23.298;2023-09-08T14:29:33;3.15;;;1.00;;
10687;SDS011;5392;42.688;23.298;2023-09-08T14:32:00;0.85;;;0.85;;
10687;SDS011;5392;42.688;23.298;2023-09-08T14:34:27;1.45;;;0.90;;
10687;SDS011;5392;42.688;23.298;2023-09-08T14:36:54;1.65;;;0.90;;
10687;SDS011;5392;42.688;23.298;2023-09-08T14:39:20;0.80;;;0.70;;
10687;SDS011;5392;42.688;23.298;2023-09-08T14:41:48;2.60;;;0.70;;
10687;SDS011;5392;42.688;23.298;2023-09-08T14:44:16;1.65;;;0.80;;
10687;SDS011;5392;42.688;23.298;2023-09-08T14:46:43;0.70;;;0.70;;
10687;SDS011;5392;42.688;23.298;2023-09-08T14:49:10;3.80;;;1.27;;
10687;SDS011;5392;42.688;23.298;2023-09-08T14:51:40;0.80;;;0.80;;
10687;SDS011;5392;42.688;23.298;2023-09-08T14:54:07;1.48;;;0.80;;
10687;SDS011;5392;42.688;23.298;2023-09-08T14:56:34;0.70;;;0.70;;
10687;SDS011;5392;42.688;23.298;2023-09-08T14:59:01;0.90;;;0.70;;
10687;SDS011;5392;42.688;23.298;2023-09-08T15:01:27;0.80;;;0.80;;
10687;SDS011;5392;42.688;23.298;2023-09-08T15:03:54;1.92;;;0.70;;
10687;SDS011;5392;42.688;23.298;2023-09-08T15:06:22;0.70;;;0.70;;
10687;SDS011;5392;42.688;23.298;2023-09-08T15:08:52;3.33;;;1.00;;